Pagrindinis puslapis
METAR-TAF:

METAR-TAF

Oro uostai :

Zonguldakas, Turkija

platuma: 41-27N, ilguma: 031-48E, Aukštis: 136 m

Dabartinis oras

Ataskaita buvo paskelbta 39 minutes, ne 10:50 UTC
Vėjas 8 kt iš Šiaurės, svyruoja nuo Šiaurės/Šiaurės Vakarų ir Šiaurės/Šiaurės Rytų
Temperatūra 26°C
Drėgmė 54%
Slėgis 1014 hPa
Matomumas 10 km arba daugiau
Mažai debesys ne aukštis 3500 ft

METAR: LTAS 171050Z 36008KT 330V030 9999 FEW035 26/16 Q1014

Laikas: 14:29 (11:29 UTC)

Prognozė

Ataskaita buvo paskelbta 3 valandos ir 49 minutes, ne 07:40 UTC
Prognozė galioja nuo 17 metu 09 UTC su 17 metu 18 UTC
Vėjas 2 kt nuo kintamojo kryptimis
Matomumas 10 km arba daugiau
Mažai debesys ne aukštis 3500 ft
Su prošvaistėmis ne aukštis 20000 ft
Laikinai
nuo 17 metu 09 UTC su 17 metu 13 UTC
Vėjas 12 kt iš Šiaurės Vakarų
Tapsmas
nuo 17 metu 13 UTC su 17 metu 15 UTC
Matomumas 10 km arba daugiau
nėra debesų žemiau 1500 m ir nėra kamuolinių lietaus debesų

TAF: LTAS 170740Z 1709/1718 VRB02KT 9999 FEW035 BKN200 TEMPO 1709/1713 32012KT BECMG 1713/1715 CAVOK

Orai ataskaitas ir orų prognozės (METAR, TAF).

turimą stotys yra geltonos ir raudonos taškus žemėlapyje.

Perkelti pele per norėdami pamatyti stoties vardą.

Tada spustelėkite, norėdami matyti oro stebėjimo ir prognozės.

Norėdami pakeisti žemėlapį: spustelėkite ant žalios mygtukų su juodo kryžiaus žemyn,; žalią mygtuką su brūkšneliu, jei norite nutolinti; arba žalių rodyklių gretimoms žemėlapius.


METAR-TAF: